createdAt,value
2017-05-20T00:00:41.138Z,1012.16
2017-05-20T00:01:50.753Z,1012.13
2017-05-20T00:03:00.353Z,1012.1
2017-05-20T00:04:09.970Z,1012.09
2017-05-20T00:05:19.574Z,1012.04
2017-05-20T00:06:29.173Z,1012.06
2017-05-20T00:07:39.092Z,1012.06
2017-05-20T00:08:49.002Z,1012.13
2017-05-20T00:09:58.916Z,1012.13
2017-05-20T00:11:08.881Z,1012.16
2017-05-20T00:12:18.590Z,1012.18
2017-05-20T00:13:28.811Z,1012.17
2017-05-20T00:14:38.787Z,1012.14
2017-05-20T00:15:48.707Z,1012.14
2017-05-20T00:16:57.999Z,1012.1
2017-05-20T00:18:08.217Z,1012.15
2017-05-20T00:19:17.832Z,1012.13
2017-05-20T00:20:26.867Z,1012.17
2017-05-20T00:21:37.080Z,1012.16
2017-05-20T00:22:47.306Z,1012.2
2017-05-20T00:23:57.221Z,1012.16
2017-05-20T00:25:06.523Z,1012.16
2017-05-20T00:26:15.825Z,1012.17
2017-05-20T00:27:26.031Z,1012.18
2017-05-20T00:28:35.339Z,1012.21
2017-05-20T00:29:45.273Z,1012.22
2017-05-20T00:30:55.196Z,1012.27
2017-05-20T00:32:04.479Z,1012.24
2017-05-20T00:33:14.085Z,1012.27
2017-05-20T00:34:24.307Z,1012.3
2017-05-20T00:35:34.526Z,1012.26
2017-05-20T00:36:44.454Z,1012.32
2017-05-20T00:37:54.674Z,1012.31
2017-05-20T00:39:04.284Z,1012.38
2017-05-20T00:40:14.191Z,1012.32
2017-05-20T00:41:24.109Z,1012.35
2017-05-20T00:42:34.044Z,1012.33
2017-05-20T00:43:44.269Z,1012.35
2017-05-20T00:44:54.489Z,1012.31
2017-05-20T00:46:03.783Z,1012.27
2017-05-20T00:47:13.388Z,1012.19
2017-05-20T00:48:23.602Z,1012.17
2017-05-20T00:49:33.829Z,1012.19
2017-05-20T00:50:43.430Z,1012.19
2017-05-20T00:51:53.659Z,1012.21
2017-05-20T00:53:03.564Z,1012.12
2017-05-20T00:54:13.785Z,1012.17
2017-05-20T00:55:23.708Z,1012.16
2017-05-20T00:56:33.929Z,1012.13
2017-05-20T00:57:44.153Z,1012.17
2017-05-20T00:58:53.477Z,1012.12
2017-05-20T01:00:02.468Z,1012.21
2017-05-20T01:01:12.059Z,1012.22
2017-05-20T01:02:21.992Z,1012.23
2017-05-20T01:03:32.235Z,1012.21
2017-05-20T01:04:41.538Z,1012.23
2017-05-20T01:05:51.134Z,1012.21
2017-05-20T01:07:01.041Z,1012.25
2017-05-20T01:08:11.262Z,1012.24
2017-05-20T01:09:21.215Z,1012.22
2017-05-20T01:10:31.431Z,1012.27
2017-05-20T01:11:41.343Z,1012.3
2017-05-20T01:12:50.940Z,1012.31
2017-05-20T01:14:00.548Z,1012.31
2017-05-20T01:15:10.450Z,1012.28
2017-05-20T01:16:20.058Z,1012.29
2017-05-20T01:17:30.338Z,1012.27
2017-05-20T01:18:40.250Z,1012.28
2017-05-20T01:19:50.839Z,1012.25
2017-05-20T01:21:00.444Z,1012.29
2017-05-20T01:22:10.041Z,1012.29
2017-05-20T01:23:19.958Z,1012.29
2017-05-20T01:24:29.863Z,1012.32
2017-05-20T01:25:39.477Z,1012.36
2017-05-20T01:26:49.377Z,1012.32
2017-05-20T01:27:58.367Z,1012.33
2017-05-20T01:29:07.978Z,1012.34
2017-05-20T01:30:17.900Z,1012.36
2017-05-20T01:31:28.170Z,1012.36
2017-05-20T01:32:38.379Z,1012.38
2017-05-20T01:33:47.986Z,1012.4
2017-05-20T01:34:57.914Z,1012.37
2017-05-20T01:36:07.225Z,1012.4
2017-05-20T01:37:17.139Z,1012.39
2017-05-20T01:38:27.043Z,1012.4
2017-05-20T01:39:36.953Z,1012.4
2017-05-20T01:40:46.249Z,1012.36
2017-05-20T01:41:55.604Z,1012.42
2017-05-20T01:43:05.839Z,1012.44
2017-05-20T01:44:15.754Z,1012.49
2017-05-20T01:45:25.968Z,1012.45
2017-05-20T01:46:35.268Z,1012.5
2017-05-20T01:47:45.483Z,1012.48
2017-05-20T01:48:55.402Z,1012.48
2017-05-20T01:50:05.315Z,1012.48
2017-05-20T01:51:14.937Z,1012.51
2017-05-20T01:52:24.542Z,1012.53
2017-05-20T01:53:34.459Z,1012.49
2017-05-20T01:54:44.383Z,1012.53
2017-05-20T01:55:54.608Z,1012.53
2017-05-20T01:57:04.829Z,1012.57
2017-05-20T01:58:14.428Z,1012.55
2017-05-20T01:59:24.024Z,1012.56
2017-05-20T02:00:33.935Z,1012.58
2017-05-20T02:01:43.538Z,1012.59
2017-05-20T02:02:53.769Z,1012.57
2017-05-20T02:04:03.673Z,1012.59
2017-05-20T02:05:13.572Z,1012.59
2017-05-20T02:06:23.178Z,1012.59
2017-05-20T02:07:33.099Z,1012.66
2017-05-20T02:08:43.331Z,1012.63
2017-05-20T02:09:53.546Z,1012.61
2017-05-20T02:11:02.860Z,1012.62
2017-05-20T02:12:12.170Z,1012.59
2017-05-20T02:13:21.769Z,1012.56
2017-05-20T02:14:32.025Z,1012.61
2017-05-20T02:15:41.627Z,1012.61
2017-05-20T02:16:51.539Z,1012.64
2017-05-20T02:18:01.451Z,1012.62
2017-05-20T02:19:11.366Z,1012.63
2017-05-20T02:20:20.426Z,1012.65
2017-05-20T02:21:30.339Z,1012.62
2017-05-20T02:22:40.605Z,1012.65
2017-05-20T02:23:50.522Z,1012.63
2017-05-20T02:25:00.140Z,1012.62
2017-05-20T02:26:10.038Z,1012.63
2017-05-20T02:27:20.246Z,1012.65
2017-05-20T02:28:29.540Z,1012.66
2017-05-20T02:29:39.152Z,1012.66
2017-05-20T02:30:49.145Z,1012.67
2017-05-20T02:31:59.354Z,1012.66
2017-05-20T02:33:09.267Z,1012.61
2017-05-20T02:34:18.867Z,1012.62
2017-05-20T02:35:28.792Z,1012.58
2017-05-20T02:36:38.733Z,1012.52
2017-05-20T02:37:48.364Z,1012.48
2017-05-20T02:38:58.287Z,1012.48
2017-05-20T02:40:08.196Z,1012.5
2017-05-20T02:41:18.107Z,1012.54
2017-05-20T02:42:27.398Z,1012.54
2017-05-20T02:43:36.698Z,1012.58
2017-05-20T02:44:46.660Z,1012.62
2017-05-20T02:45:56.577Z,1012.64
2017-05-20T02:47:06.481Z,1012.65
2017-05-20T02:48:15.785Z,1012.72
2017-05-20T02:49:25.738Z,1012.73
2017-05-20T02:50:35.705Z,1012.75
2017-05-20T02:51:45.625Z,1012.71
2017-05-20T02:52:55.225Z,1012.72
2017-05-20T02:54:04.545Z,1012.71
2017-05-20T02:55:14.766Z,1012.72
2017-05-20T02:56:24.698Z,1012.75
2017-05-20T02:57:34.287Z,1012.76
2017-05-20T02:58:44.198Z,1012.8
2017-05-20T02:59:53.815Z,1012.78
2017-05-20T03:01:03.744Z,1012.81
2017-05-20T03:02:13.683Z,1012.82
2017-05-20T03:03:22.972Z,1012.87
2017-05-20T03:04:32.884Z,1012.82
2017-05-20T03:05:42.801Z,1012.86
2017-05-20T03:06:52.710Z,1012.86
2017-05-20T03:08:02.615Z,1012.86
2017-05-20T03:09:12.526Z,1012.88
2017-05-20T03:10:22.444Z,1012.88
2017-05-20T03:11:32.349Z,1012.93
2017-05-20T03:12:41.957Z,1012.87
2017-05-20T03:13:50.958Z,1012.88
2017-05-20T03:15:00.567Z,1012.85
2017-05-20T03:16:10.172Z,1012.9
2017-05-20T03:17:19.791Z,1012.94
2017-05-20T03:18:29.694Z,1012.94
2017-05-20T03:19:38.984Z,1012.95
2017-05-20T03:20:48.575Z,1012.94
2017-05-20T03:21:58.498Z,1013.01
2017-05-20T03:23:08.405Z,1013
2017-05-20T03:24:18.322Z,1012.98
2017-05-20T03:25:28.220Z,1012.96
2017-05-20T03:26:38.427Z,1012.96
2017-05-20T03:27:48.648Z,1012.95
2017-05-20T03:28:58.880Z,1012.91
2017-05-20T03:30:09.254Z,1012.92
2017-05-20T03:31:19.169Z,1012.87
2017-05-20T03:32:29.086Z,1012.89
2017-05-20T03:33:39.296Z,1012.88
2017-05-20T03:34:48.899Z,1012.9
2017-05-20T03:35:59.125Z,1012.87
2017-05-20T03:37:08.725Z,1012.92
2017-05-20T03:38:18.931Z,1012.92
2017-05-20T03:39:28.540Z,1012.91
2017-05-20T03:40:38.450Z,1012.95
2017-05-20T03:41:48.677Z,1012.95
2017-05-20T03:42:57.971Z,1012.94
2017-05-20T03:44:07.877Z,1012.98
2017-05-20T03:45:17.489Z,1012.96
2017-05-20T03:46:27.394Z,1013.01
2017-05-20T03:47:37.291Z,1013.04
2017-05-20T03:48:47.214Z,1013.07
2017-05-20T03:49:57.486Z,1013.1
2017-05-20T03:51:07.397Z,1013.13
2017-05-20T03:52:16.684Z,1013.09
2017-05-20T03:53:26.595Z,1013.11
2017-05-20T03:54:36.501Z,1013.15
2017-05-20T03:55:45.557Z,1013.16
2017-05-20T03:56:55.465Z,1013.17
2017-05-20T03:58:05.365Z,1013.23
2017-05-20T03:59:14.968Z,1013.22
2017-05-20T04:00:25.199Z,1013.26
2017-05-20T04:01:35.108Z,1013.25
2017-05-20T04:02:45.081Z,1013.26
2017-05-20T04:03:54.692Z,1013.29
2017-05-20T04:05:04.639Z,1013.29
2017-05-20T04:06:14.548Z,1013.33
2017-05-20T04:07:23.846Z,1013.39
2017-05-20T04:08:33.747Z,1013.39
2017-05-20T04:09:43.667Z,1013.4
2017-05-20T04:10:52.968Z,1013.42
2017-05-20T04:12:02.880Z,1013.43
2017-05-20T04:13:12.788Z,1013.45
2017-05-20T04:14:22.703Z,1013.5
2017-05-20T04:15:32.614Z,1013.47
2017-05-20T04:16:42.847Z,1013.49
2017-05-20T04:17:52.861Z,1013.48
2017-05-20T04:19:02.776Z,1013.49
2017-05-20T04:20:12.683Z,1013.51
2017-05-20T04:21:21.994Z,1013.55
2017-05-20T04:22:31.894Z,1013.58
2017-05-20T04:23:41.825Z,1013.63
2017-05-20T04:24:51.753Z,1013.61
2017-05-20T04:26:01.666Z,1013.67
2017-05-20T04:27:11.275Z,1013.71
2017-05-20T04:28:21.488Z,1013.7
2017-05-20T04:29:31.402Z,1013.71
2017-05-20T04:30:41.309Z,1013.76
2017-05-20T04:31:51.519Z,1013.8
2017-05-20T04:33:01.428Z,1013.8
2017-05-20T04:34:11.377Z,1013.8
2017-05-20T04:35:20.999Z,1013.8
2017-05-20T04:36:30.655Z,1013.81
2017-05-20T04:37:40.266Z,1013.82
2017-05-20T04:38:50.502Z,1013.84
2017-05-20T04:40:00.117Z,1013.87
2017-05-20T04:41:10.333Z,1013.85
2017-05-20T04:42:20.250Z,1013.92
2017-05-20T04:43:30.464Z,1013.92
2017-05-20T04:44:39.798Z,1013.94
2017-05-20T04:45:49.123Z,1013.96
2017-05-20T04:46:59.041Z,1013.97
2017-05-20T04:48:08.970Z,1013.97
2017-05-20T04:49:18.907Z,1013.95
2017-05-20T04:50:28.819Z,1013.97
2017-05-20T04:51:39.062Z,1014
2017-05-20T04:52:48.969Z,1014.02
2017-05-20T04:53:58.580Z,1014.01
2017-05-20T04:55:08.231Z,1014
2017-05-20T04:56:18.173Z,1014.03
2017-05-20T04:57:27.979Z,1014.03
2017-05-20T04:58:37.913Z,1014.02
2017-05-20T04:59:47.237Z,1014.05
2017-05-20T05:00:56.840Z,1014.06
2017-05-20T05:02:06.453Z,1014.08
2017-05-20T05:03:16.078Z,1014.1
2017-05-20T05:04:25.090Z,1014.12
2017-05-20T05:05:34.706Z,1014.15
2017-05-20T05:06:44.621Z,1014.16
2017-05-20T05:07:54.229Z,1014.12
2017-05-20T05:09:03.843Z,1014.14
2017-05-20T05:10:13.461Z,1014.13
2017-05-20T05:11:23.410Z,1014.13
2017-05-20T05:12:33.687Z,1014.19
2017-05-20T05:13:43.089Z,1014.12
2017-05-20T05:14:52.703Z,1014.12
2017-05-20T05:16:02.947Z,1014.11
2017-05-20T05:17:12.566Z,1014.09
2017-05-20T05:18:21.899Z,1014.1
2017-05-20T05:19:32.126Z,1014.09
2017-05-20T05:20:42.063Z,1014.12
2017-05-20T05:21:51.700Z,1014.06
2017-05-20T05:23:01.611Z,1014.12
2017-05-20T05:24:11.229Z,1014.11
2017-05-20T05:25:21.167Z,1014.12
2017-05-20T05:26:30.799Z,1014.1
2017-05-20T05:27:41.059Z,1014.11
2017-05-20T05:28:50.675Z,1014.06
2017-05-20T05:30:00.309Z,1014.08
2017-05-20T05:31:10.555Z,1014.09
2017-05-20T05:32:20.772Z,1014.07
2017-05-20T05:33:31.023Z,1014.04
2017-05-20T05:34:40.637Z,1014.07
2017-05-20T05:35:50.325Z,1014.09
2017-05-20T05:37:00.242Z,1014.08
2017-05-20T05:38:10.155Z,1014.09
2017-05-20T05:39:19.755Z,1014.08
2017-05-20T05:40:29.369Z,1014.07
2017-05-20T05:41:39.313Z,1014.09
2017-05-20T05:42:49.227Z,1014.09
2017-05-20T05:43:59.165Z,1014.1
2017-05-20T05:45:09.378Z,1014.08
2017-05-20T05:46:19.310Z,1014.1
2017-05-20T05:47:28.613Z,1014.12
2017-05-20T05:48:38.875Z,1014.11
2017-05-20T05:49:48.798Z,1014.15
2017-05-20T05:50:58.083Z,1014.19
2017-05-20T05:52:07.685Z,1014.2
2017-05-20T05:53:17.599Z,1014.19
2017-05-20T05:54:27.544Z,1014.24
2017-05-20T05:55:37.779Z,1014.28
2017-05-20T05:56:47.694Z,1014.29
2017-05-20T05:57:57.606Z,1014.33
2017-05-20T05:59:07.198Z,1014.33
2017-05-20T06:00:17.132Z,1014.35
2017-05-20T06:01:27.055Z,1014.39
2017-05-20T06:02:36.967Z,1014.41
2017-05-20T06:03:46.642Z,1014.45
2017-05-20T06:04:56.936Z,1014.41
2017-05-20T06:06:06.867Z,1014.44
2017-05-20T06:07:17.097Z,1014.48
2017-05-20T06:08:26.693Z,1014.51
2017-05-20T06:09:36.007Z,1014.5
2017-05-20T06:10:45.970Z,1014.51
2017-05-20T06:11:55.580Z,1014.49
2017-05-20T06:13:05.188Z,1014.51
2017-05-20T06:14:15.449Z,1014.54
2017-05-20T06:15:26.080Z,1014.54
2017-05-20T06:16:35.951Z,1014.53
2017-05-20T06:17:46.212Z,1014.57
2017-05-20T06:18:56.128Z,1014.6
2017-05-20T06:20:05.750Z,1014.64
2017-05-20T06:21:15.760Z,1014.61
2017-05-20T06:22:25.133Z,1014.65
2017-05-20T06:23:35.407Z,1014.62
2017-05-20T06:24:45.065Z,1014.65
2017-05-20T06:25:54.704Z,1014.69
2017-05-20T06:27:04.304Z,1014.73
2017-05-20T06:28:13.631Z,1014.75
2017-05-20T06:29:23.288Z,1014.76
2017-05-20T06:30:33.904Z,1014.74
2017-05-20T06:31:44.512Z,1014.8
2017-05-20T06:32:53.822Z,1014.81
2017-05-20T06:34:03.616Z,1014.85
2017-05-20T06:35:14.487Z,1014.88
2017-05-20T06:36:24.814Z,1014.88
2017-05-20T06:37:35.021Z,1014.9
2017-05-20T06:38:45.019Z,1014.88
2017-05-20T06:39:54.022Z,1014.85
2017-05-20T06:41:03.692Z,1014.94
2017-05-20T06:42:13.940Z,1014.91
2017-05-20T06:43:23.876Z,1014.93
2017-05-20T06:44:34.094Z,1014.93
2017-05-20T06:45:44.084Z,1014.9
2017-05-20T06:46:53.743Z,1014.93
2017-05-20T06:48:03.654Z,1014.92
2017-05-20T06:49:13.269Z,1014.92
2017-05-20T06:50:23.875Z,1014.96
2017-05-20T06:51:33.494Z,1014.95
2017-05-20T06:52:43.118Z,1014.92
2017-05-20T06:53:53.027Z,1015
2017-05-20T06:55:02.937Z,1015
2017-05-20T06:56:12.242Z,1015.03
2017-05-20T06:57:21.248Z,1015.01
2017-05-20T06:58:31.162Z,1015.03
2017-05-20T06:59:41.395Z,1015.05
2017-05-20T07:00:51.020Z,1015.03
2017-05-20T07:02:00.614Z,1015.03
2017-05-20T07:03:10.598Z,1015.06
2017-05-20T07:04:20.507Z,1015.07
2017-05-20T07:05:30.438Z,1015.11
2017-05-20T07:06:40.098Z,1015.15
2017-05-20T07:07:49.700Z,1015.18
2017-05-20T07:08:59.614Z,1015.14
2017-05-20T07:10:09.514Z,1015.2
2017-05-20T07:11:19.727Z,1015.19
2017-05-20T07:12:29.025Z,1015.22
2017-05-20T07:13:39.261Z,1015.21
2017-05-20T07:14:48.906Z,1015.24
2017-05-20T07:15:58.854Z,1015.27
2017-05-20T07:17:08.147Z,1015.29
2017-05-20T07:18:18.088Z,1015.28
2017-05-20T07:19:28.026Z,1015.26
2017-05-20T07:20:37.936Z,1015.31
2017-05-20T07:21:46.926Z,1015.27
2017-05-20T07:22:56.529Z,1015.27
2017-05-20T07:24:05.820Z,1015.25
2017-05-20T07:25:16.053Z,1015.27
2017-05-20T07:26:25.981Z,1015.23
2017-05-20T07:27:36.257Z,1015.3
2017-05-20T07:28:46.216Z,1015.23
2017-05-20T07:29:55.832Z,1015.28
2017-05-20T07:31:05.771Z,1015.33
2017-05-20T07:32:15.753Z,1015.36
2017-05-20T07:33:25.969Z,1015.35
2017-05-20T07:34:35.902Z,1015.4
2017-05-20T07:35:45.520Z,1015.31
2017-05-20T07:36:55.768Z,1015.29
2017-05-20T07:38:06.022Z,1015.29
2017-05-20T07:39:16.250Z,1015.32
2017-05-20T07:40:25.855Z,1015.27
2017-05-20T07:41:35.487Z,1015.27
2017-05-20T07:42:45.408Z,1015.31
2017-05-20T07:43:55.664Z,1015.32
2017-05-20T07:45:05.910Z,1015.32
2017-05-20T07:46:15.850Z,1015.31
2017-05-20T07:47:25.775Z,1015.34
2017-05-20T07:48:36.394Z,1015.33
2017-05-20T07:49:46.025Z,1015.32
2017-05-20T07:50:55.635Z,1015.33
2017-05-20T07:52:05.315Z,1015.35
2017-05-20T07:53:14.976Z,1015.37
2017-05-20T07:54:24.939Z,1015.39
2017-05-20T07:55:34.253Z,1015.41
2017-05-20T07:56:44.486Z,1015.43
2017-05-20T07:57:54.109Z,1015.45
2017-05-20T07:59:03.763Z,1015.48
2017-05-20T08:00:13.696Z,1015.44
2017-05-20T08:01:23.944Z,1015.5
2017-05-20T08:02:33.613Z,1015.51
2017-05-20T08:03:42.948Z,1015.52
2017-05-20T08:04:53.212Z,1015.5
2017-05-20T08:06:02.847Z,1015.46
2017-05-20T08:07:13.068Z,1015.48
2017-05-20T08:08:22.688Z,1015.51
2017-05-20T08:09:32.917Z,1015.52
2017-05-20T08:10:43.145Z,1015.51
2017-05-20T08:11:53.062Z,1015.45
2017-05-20T08:13:02.379Z,1015.42
2017-05-20T08:14:12.605Z,1015.44
2017-05-20T08:15:22.218Z,1015.45
2017-05-20T08:16:32.436Z,1015.41
2017-05-20T08:17:42.055Z,1015.44
2017-05-20T08:18:52.343Z,1015.45
2017-05-20T08:20:02.254Z,1015.45
2017-05-20T08:21:12.474Z,1015.48
2017-05-20T08:22:22.086Z,1015.52
2017-05-20T08:23:32.000Z,1015.48
2017-05-20T08:24:41.621Z,1015.47
2017-05-20T08:25:51.232Z,1015.48
2017-05-20T08:27:00.850Z,1015.52
2017-05-20T08:28:10.787Z,1015.55
2017-05-20T08:29:21.021Z,1015.54
2017-05-20T08:30:31.267Z,1015.52
2017-05-20T08:31:40.886Z,1015.54
2017-05-20T08:32:51.105Z,1015.55
2017-05-20T08:34:01.036Z,1015.56
2017-05-20T08:35:11.281Z,1015.52
2017-05-20T08:36:21.199Z,1015.48
2017-05-20T08:37:32.135Z,1015.51
2017-05-20T08:38:42.365Z,1015.5
2017-05-20T08:39:51.979Z,1015.54
2017-05-20T08:41:01.609Z,1015.54
2017-05-20T08:42:11.522Z,1015.56
2017-05-20T08:43:21.460Z,1015.54
2017-05-20T08:44:31.384Z,1015.53
2017-05-20T08:45:41.058Z,1015.56
2017-05-20T08:46:51.010Z,1015.55
2017-05-20T08:48:00.918Z,1015.59
2017-05-20T08:49:11.159Z,1015.58
2017-05-20T08:50:20.835Z,1015.57
2017-05-20T08:51:30.778Z,1015.58
2017-05-20T08:52:40.693Z,1015.6
2017-05-20T08:53:50.620Z,1015.6
2017-05-20T08:55:00.847Z,1015.63
2017-05-20T08:56:10.451Z,1015.68
2017-05-20T08:57:20.108Z,1015.69
2017-05-20T08:58:29.409Z,1015.72
2017-05-20T08:59:39.329Z,1015.75
2017-05-20T09:00:49.248Z,1015.73
2017-05-20T09:01:59.475Z,1015.76
2017-05-20T09:03:09.697Z,1015.72
2017-05-20T09:04:19.619Z,1015.77
2017-05-20T09:05:29.537Z,1015.75
2017-05-20T09:06:39.183Z,1015.75
2017-05-20T09:07:48.538Z,1015.75
2017-05-20T09:08:58.484Z,1015.75
2017-05-20T09:10:07.791Z,1015.77
2017-05-20T09:11:17.702Z,1015.79
2017-05-20T09:12:27.310Z,1015.83
2017-05-20T09:13:37.560Z,1015.84
2017-05-20T09:14:47.794Z,1015.84
2017-05-20T09:15:57.714Z,1015.87
2017-05-20T09:17:07.623Z,1015.9
2017-05-20T09:18:16.931Z,1015.86
2017-05-20T09:19:26.846Z,1015.88
2017-05-20T09:20:36.465Z,1015.91
2017-05-20T09:21:46.711Z,1015.91
2017-05-20T09:22:56.340Z,1015.93
2017-05-20T09:24:06.578Z,1015.98
2017-05-20T09:26:24.567Z,1016
2017-05-20T09:27:34.486Z,1016.03
2017-05-20T09:28:44.116Z,1015.99
2017-05-20T09:29:53.726Z,1016.02
2017-05-20T09:31:03.324Z,1016.02
2017-05-20T09:32:13.543Z,1015.99
2017-05-20T09:33:23.158Z,1016.07
2017-05-20T09:34:33.090Z,1016.05
2017-05-20T09:35:42.386Z,1016.04
2017-05-20T09:36:51.680Z,1016.06
2017-05-20T09:38:01.895Z,1016.11
2017-05-20T09:39:11.816Z,1016.1
2017-05-20T09:40:21.753Z,1016.13
2017-05-20T09:41:30.782Z,1016.21
2017-05-20T09:42:40.698Z,1016.22
2017-05-20T09:43:50.622Z,1016.22
2017-05-20T09:45:00.539Z,1016.28
2017-05-20T09:46:09.838Z,1016.28
2017-05-20T09:47:20.078Z,1016.32
2017-05-20T09:48:29.679Z,1016.27
2017-05-20T09:49:39.589Z,1016.36
2017-05-20T09:50:49.540Z,1016.39
2017-05-20T09:51:59.154Z,1016.44
2017-05-20T09:53:08.475Z,1016.44
2017-05-20T09:54:18.402Z,1016.47
2017-05-20T09:55:27.713Z,1016.45
2017-05-20T09:56:37.934Z,1016.45
2017-05-20T09:57:47.864Z,1016.44
2017-05-20T09:58:57.466Z,1016.4
2017-05-20T10:00:07.378Z,1016.39
2017-05-20T10:01:17.011Z,1016.39
2017-05-20T10:02:26.347Z,1016.47
2017-05-20T10:03:36.569Z,1016.48
2017-05-20T10:04:46.184Z,1016.47
2017-05-20T10:05:56.094Z,1016.44
2017-05-20T10:07:06.014Z,1016.48
2017-05-20T10:08:16.266Z,1016.47
2017-05-20T10:09:26.182Z,1016.47
2017-05-20T10:10:35.486Z,1016.46
2017-05-20T10:11:44.799Z,1016.5
2017-05-20T10:12:54.719Z,1016.5
2017-05-20T10:14:04.944Z,1016.47
2017-05-20T10:15:13.947Z,1016.56
2017-05-20T10:16:23.280Z,1016.6
2017-05-20T10:17:33.570Z,1016.56
2017-05-20T10:18:43.491Z,1016.56
2017-05-20T10:19:53.105Z,1016.56
2017-05-20T10:21:03.018Z,1016.56
2017-05-20T10:22:12.957Z,1016.58
2017-05-20T10:23:22.862Z,1016.65
2017-05-20T10:24:33.081Z,1016.56
2017-05-20T10:25:42.980Z,1016.64
2017-05-20T10:26:51.679Z,1016.61
2017-05-20T10:28:01.292Z,1016.55
2017-05-20T10:29:10.606Z,1016.57
2017-05-20T10:30:20.243Z,1016.6
2017-05-20T10:31:30.222Z,1016.61
2017-05-20T10:32:40.140Z,1016.7
2017-05-20T10:33:50.141Z,1016.69
2017-05-20T10:34:59.438Z,1016.75
2017-05-20T10:36:09.346Z,1016.73
2017-05-20T10:37:18.957Z,1016.78
2017-05-20T10:38:28.863Z,1016.73
2017-05-20T10:39:38.467Z,1016.69
2017-05-20T10:40:48.389Z,1016.68
2017-05-20T10:41:57.687Z,1016.72
2017-05-20T10:43:07.600Z,1016.72
2017-05-20T10:44:16.893Z,1016.74
2017-05-20T10:45:27.107Z,1016.77
2017-05-20T10:46:36.730Z,1016.76
2017-05-20T10:47:46.656Z,1016.8
2017-05-20T10:48:56.622Z,1016.79
2017-05-20T10:50:06.540Z,1016.83
2017-05-20T10:51:16.130Z,1016.82
2017-05-20T10:52:25.429Z,1016.85
2017-05-20T10:53:35.375Z,1016.83
2017-05-20T10:54:45.595Z,1016.84
2017-05-20T10:55:55.837Z,1016.85
2017-05-20T10:57:05.755Z,1016.86
2017-05-20T10:58:15.362Z,1016.91
2017-05-20T10:59:24.708Z,1016.94
2017-05-20T11:00:34.616Z,1016.92
2017-05-20T11:01:44.562Z,1016.95
2017-05-20T11:02:54.467Z,1016.92
2017-05-20T11:04:04.069Z,1016.92
2017-05-20T11:05:14.040Z,1016.92
2017-05-20T11:06:23.637Z,1016.91
2017-05-20T11:07:33.847Z,1016.87
2017-05-20T11:08:43.150Z,1016.96
2017-05-20T11:09:53.060Z,1016.93
2017-05-20T11:11:02.662Z,1016.91
2017-05-20T11:12:12.589Z,1016.97
2017-05-20T11:13:21.887Z,1016.96
2017-05-20T11:14:32.093Z,1016.92
2017-05-20T11:15:42.010Z,1016.96
2017-05-20T11:16:51.010Z,1016.96
2017-05-20T11:18:00.966Z,1016.94
2017-05-20T11:19:11.177Z,1016.95
2017-05-20T11:20:21.403Z,1016.99
2017-05-20T11:21:31.308Z,1016.98
2017-05-20T11:22:41.214Z,1016.99
2017-05-20T11:23:51.142Z,1016.99
2017-05-20T11:25:00.458Z,1017
2017-05-20T11:26:10.366Z,1016.99
2017-05-20T11:27:20.292Z,1017.02
2017-05-20T11:28:29.277Z,1017.04
2017-05-20T11:29:38.869Z,1017.08
2017-05-20T11:30:48.479Z,1017.08
2017-05-20T11:31:57.784Z,1017.01
2017-05-20T11:33:08.048Z,1017.06
2017-05-20T11:34:17.662Z,1017.04
2017-05-20T11:35:27.589Z,1017.06
2017-05-20T11:36:37.496Z,1017.07
2017-05-20T11:37:47.421Z,1017.12
2017-05-20T11:38:57.044Z,1017.12
2017-05-20T11:40:06.654Z,1017.14
2017-05-20T11:41:16.868Z,1017.1
2017-05-20T11:42:26.476Z,1017.15
2017-05-20T11:43:36.689Z,1017.17
2017-05-20T11:44:46.304Z,1017.18
2017-05-20T11:45:56.235Z,1017.21
2017-05-20T11:47:05.868Z,1017.2
2017-05-20T11:48:15.194Z,1017.17
2017-05-20T11:49:25.130Z,1017.24
2017-05-20T11:50:34.739Z,1017.26
2017-05-20T11:51:44.644Z,1017.25
2017-05-20T11:52:53.954Z,1017.26
2017-05-20T11:54:04.173Z,1017.28
2017-05-20T11:55:14.113Z,1017.25
2017-05-20T11:56:24.023Z,1017.27
2017-05-20T11:57:33.743Z,1017.26
2017-05-20T11:58:45.481Z,1017.33
2017-05-20T11:59:56.827Z,1017.33
2017-05-20T12:01:06.793Z,1017.34
2017-05-20T12:02:16.122Z,1017.38
2017-05-20T12:03:27.229Z,1017.36
2017-05-20T12:04:37.099Z,1017.33
2017-05-20T12:05:47.099Z,1017.36
2017-05-20T12:06:56.421Z,1017.38
2017-05-20T12:08:06.640Z,1017.34
2017-05-20T12:09:16.858Z,1017.34
2017-05-20T12:10:27.082Z,1017.36
2017-05-20T12:11:37.297Z,1017.33
2017-05-20T12:12:47.213Z,1017.38
2017-05-20T12:13:55.980Z,1017.4
2017-05-20T12:15:05.899Z,1017.42
2017-05-20T12:16:15.209Z,1017.46
2017-05-20T12:17:25.145Z,1017.44
2017-05-20T12:18:35.090Z,1017.45
2017-05-20T12:19:44.735Z,1017.47
2017-05-20T12:20:54.349Z,1017.5
2017-05-20T12:22:04.277Z,1017.52
2017-05-20T12:23:14.192Z,1017.52
2017-05-20T12:24:23.813Z,1017.56
2017-05-20T12:25:33.145Z,1017.56
2017-05-20T12:26:43.384Z,1017.6
2017-05-20T12:27:53.318Z,1017.54
2017-05-20T12:29:03.561Z,1017.57
2017-05-20T12:30:13.812Z,1017.63
2017-05-20T12:31:23.418Z,1017.65
2017-05-20T12:32:33.674Z,1017.67
2017-05-20T12:33:43.606Z,1017.7
2017-05-20T12:34:53.512Z,1017.72
2017-05-20T12:36:03.809Z,1017.71
2017-05-20T12:37:13.124Z,1017.75
2017-05-20T12:38:22.736Z,1017.74
2017-05-20T12:39:32.646Z,1017.77
2017-05-20T12:40:41.954Z,1017.78
2017-05-20T12:41:51.257Z,1017.82
2017-05-20T12:43:00.880Z,1017.77
2017-05-20T12:44:10.815Z,1017.77
2017-05-20T12:45:21.042Z,1017.75
2017-05-20T12:46:30.979Z,1017.78
2017-05-20T12:47:40.968Z,1017.78
2017-05-20T12:48:50.895Z,1017.75
2017-05-20T12:50:00.208Z,1017.75
2017-05-20T12:51:10.114Z,1017.76
2017-05-20T12:52:20.698Z,1017.79
2017-05-20T12:53:30.298Z,1017.75
2017-05-20T12:54:39.899Z,1017.75
2017-05-20T12:55:49.508Z,1017.75
2017-05-20T12:56:59.410Z,1017.75
2017-05-20T12:58:09.019Z,1017.77
2017-05-20T12:59:18.934Z,1017.78
2017-05-20T13:00:28.848Z,1017.78
2017-05-20T13:01:39.071Z,1017.77
2017-05-20T13:02:48.368Z,1017.72
2017-05-20T13:03:57.737Z,1017.74
2017-05-20T13:05:07.378Z,1017.67
2017-05-20T13:06:17.603Z,1017.67
2017-05-20T13:07:27.520Z,1017.72
2017-05-20T13:08:37.748Z,1017.68
2017-05-20T13:09:47.980Z,1017.73
2017-05-20T13:10:57.902Z,1017.74
2017-05-20T13:12:07.513Z,1017.76
2017-05-20T13:13:17.127Z,1017.76
2017-05-20T13:14:26.734Z,1017.8
2017-05-20T13:15:36.038Z,1017.8
2017-05-20T13:16:45.646Z,1017.83
2017-05-20T13:17:55.563Z,1017.81
2017-05-20T13:19:04.859Z,1017.86
2017-05-20T13:20:14.507Z,1017.87
2017-05-20T13:21:24.742Z,1017.84
2017-05-20T13:22:34.366Z,1017.87
2017-05-20T13:23:44.281Z,1017.9
2017-05-20T13:24:53.605Z,1017.9
2017-05-20T13:26:03.225Z,1017.88
2017-05-20T13:27:12.828Z,1017.89
2017-05-20T13:28:22.751Z,1017.84
2017-05-20T13:29:32.364Z,1017.88
2017-05-20T13:30:42.298Z,1017.89
2017-05-20T13:31:52.209Z,1017.89
2017-05-20T13:33:01.811Z,1017.89
2017-05-20T13:34:11.414Z,1017.96
2017-05-20T13:35:21.335Z,1017.95
2017-05-20T13:36:31.264Z,1017.97
2017-05-20T13:37:41.179Z,1017.96
2017-05-20T13:38:51.106Z,1018.01
2017-05-20T13:40:00.709Z,1017.97
2017-05-20T13:41:10.379Z,1018
2017-05-20T13:42:20.396Z,1017.99
2017-05-20T13:43:29.718Z,1017.97
2017-05-20T13:44:39.632Z,1018.01
2017-05-20T13:45:49.868Z,1018
2017-05-20T13:46:59.765Z,1018.01
2017-05-20T13:48:09.083Z,1017.99
2017-05-20T13:49:19.363Z,1018.01
2017-05-20T13:50:29.284Z,1018.04
2017-05-20T13:51:38.580Z,1018.05
2017-05-20T13:52:48.202Z,1018.03
2017-05-20T13:53:58.146Z,1018.03
2017-05-20T13:55:07.787Z,1018.06
2017-05-20T13:56:17.103Z,1018.06
2017-05-20T13:57:27.017Z,1018.03
2017-05-20T13:58:36.925Z,1018.05
2017-05-20T13:59:46.276Z,1018.04
2017-05-20T14:00:55.888Z,1018.04
2017-05-20T14:02:06.124Z,1018.06
2017-05-20T14:03:16.353Z,1018.04
2017-05-20T14:04:26.263Z,1018.06
2017-05-20T14:05:35.868Z,1018.05
2017-05-20T14:06:46.117Z,1018.07
2017-05-20T14:07:55.713Z,1018.05
2017-05-20T14:09:05.940Z,1018.07